Airfield :
LOGIN :

Register | Disclaimer

   EN    FR    IT 

 










Legend :    VFR   Marginal VFR   IFR   Intensive IFR   Very Intensive IFR
Visi :
Ceiling :
>= 8 km
>= 3000ft
5 to 8 km
1000 to 3000 ft
1500m to 5 km
500 to 1000 ft
800 to 1500m
200 to 500 ft
< 800m
< 200 ft
Symbols :   Thunderstorms  Fog  Heavy snow  Heavy precipitations  Wind > 20 kt
SIGMETs :     Misc.  Thunderstorms  Icing  Turbulence  Mountain Waves  Volcanic Ashes







- Airport Elevation : 138 ft
- IATA code : RLG


ETNL - Rostock Laage

CURRENT METAR :
  • 180420Z 22002KT 9999 VCFG MIFG SCT280 12/11 Q1020 BLU+

EXPIRED METARs :
  • 180320Z 21002KT 9999 VCFG MIFG FEW027 12/12 Q1020 BLU+
  • 180220Z 25002KT 9999 MIFG FEW040 12/12 Q1020 BLU+
  • 180153Z 25002KT 9999 MIFG 12/12 Q1020 BLU+

TAF TAF ETNL
Valid from the 18 at 05:00 until the 18 at 17:00 UTC


180405Z 1805/1817 27007KT 9999 NSW FEW030 SCT200
TEMPO 1805/1806 VRB03KT 3000 VCFG FEW005 SCT200 BY ETGL
No reported NOTAMs for that airfield.



MET'MAP, your aeronautical weather chart ! - Copyright ORBIFLY December 2007 - Disclaimer

ORBIFLY MET'MAP TEAM :

Programming & Development : Alexandra Zaïnal
Concept & Development : Baudouin d'Aumeries
Co-Development & Prog : Marc-Olivier Méhu
Technical & hardware support : Manuel Goepfert

Contact : metmap@orbifly.com




SOURCES & CREDITS :

   NOAA